createdAt,value
2019-03-24T00:00:40.536Z,16.07
2019-03-24T00:03:07.749Z,16.60
2019-03-24T00:05:35.003Z,14.30
2019-03-24T00:08:02.342Z,19.47
2019-03-24T00:10:29.535Z,16.00
2019-03-24T00:12:56.999Z,14.53
2019-03-24T00:15:26.511Z,17.97
2019-03-24T00:17:53.360Z,17.00
2019-03-24T00:20:20.563Z,20.43
2019-03-24T00:22:47.754Z,18.97
2019-03-24T00:25:14.966Z,18.93
2019-03-24T00:27:42.154Z,22.83
2019-03-24T00:30:09.896Z,22.63
2019-03-24T00:32:37.222Z,23.90
2019-03-24T00:35:04.632Z,25.40
2019-03-24T00:37:31.812Z,27.67
2019-03-24T00:39:59.153Z,24.00
2019-03-24T00:42:26.498Z,34.53
2019-03-24T00:44:53.765Z,26.87
2019-03-24T00:47:22.545Z,28.13
2019-03-24T00:49:49.861Z,28.00
2019-03-24T00:52:17.171Z,27.63
2019-03-24T00:54:44.274Z,25.43
2019-03-24T00:57:11.515Z,25.00
2019-03-24T00:59:38.706Z,24.47
2019-03-24T01:02:06.057Z,29.17
2019-03-24T01:04:33.415Z,27.43
2019-03-24T01:07:00.656Z,32.37
2019-03-24T01:09:27.977Z,26.70
2019-03-24T01:11:55.188Z,35.13
2019-03-24T01:14:22.402Z,31.00
2019-03-24T01:16:49.593Z,29.13
2019-03-24T01:19:16.780Z,35.40
2019-03-24T01:21:44.128Z,36.50
2019-03-24T01:24:11.396Z,26.63
2019-03-24T01:26:38.637Z,31.57
2019-03-24T01:29:05.950Z,28.07
2019-03-24T01:31:33.127Z,32.47
2019-03-24T01:34:00.443Z,34.33
2019-03-24T01:36:27.748Z,35.53
2019-03-24T01:38:54.945Z,34.73
2019-03-24T01:41:22.148Z,28.47
2019-03-24T01:43:49.539Z,28.87
2019-03-24T01:46:16.712Z,32.80
2019-03-24T01:48:43.938Z,32.70
2019-03-24T01:51:11.332Z,36.43
2019-03-24T01:53:38.477Z,27.47
2019-03-24T01:56:06.234Z,25.17
2019-03-24T01:58:33.531Z,28.20
2019-03-24T02:01:00.739Z,31.77
2019-03-24T02:03:27.938Z,34.43
2019-03-24T02:05:55.316Z,32.43
2019-03-24T02:08:22.528Z,33.20
2019-03-24T02:10:49.793Z,29.90
2019-03-24T02:13:17.027Z,25.97
2019-03-24T02:15:44.223Z,31.43
2019-03-24T02:18:11.535Z,37.60
2019-03-24T02:20:38.844Z,35.47
2019-03-24T02:23:06.042Z,33.43
2019-03-24T02:25:33.369Z,35.43
2019-03-24T02:28:00.621Z,34.23
2019-03-24T02:30:27.793Z,30.47
2019-03-24T02:32:55.074Z,32.23
2019-03-24T02:35:22.316Z,37.23
2019-03-24T02:37:49.663Z,31.00
2019-03-24T02:40:16.853Z,39.00
2019-03-24T02:42:44.100Z,41.50
2019-03-24T02:45:11.576Z,40.73
2019-03-24T02:47:38.821Z,34.13
2019-03-24T02:50:06.829Z,46.87
2019-03-24T02:52:34.118Z,37.90
2019-03-24T02:55:01.339Z,39.67
2019-03-24T02:57:28.520Z,45.70
2019-03-24T02:59:56.806Z,40.13
2019-03-24T03:02:24.088Z,38.13
2019-03-24T03:04:51.309Z,46.50
2019-03-24T03:07:18.700Z,47.80
2019-03-24T03:09:45.875Z,44.70
2019-03-24T03:12:13.235Z,47.87
2019-03-24T03:14:41.636Z,44.73
2019-03-24T03:17:08.924Z,44.40
2019-03-24T03:19:36.120Z,45.90
2019-03-24T03:22:03.526Z,43.77
2019-03-24T03:24:30.818Z,39.40
2019-03-24T03:26:58.094Z,51.40
2019-03-24T03:29:25.325Z,55.00
2019-03-24T03:31:52.647Z,44.53
2019-03-24T03:34:19.878Z,45.63
2019-03-24T03:36:47.120Z,45.63
2019-03-24T03:39:14.387Z,44.07
2019-03-24T03:41:41.554Z,46.97
2019-03-24T03:44:08.751Z,48.27
2019-03-24T03:46:36.030Z,53.47
2019-03-24T03:49:03.230Z,60.33
2019-03-24T03:51:30.403Z,49.23
2019-03-24T03:54:00.645Z,50.43
2019-03-24T03:56:27.907Z,50.10
2019-03-24T03:58:55.064Z,49.23
2019-03-24T04:01:22.352Z,46.43
2019-03-24T04:03:49.763Z,47.23
2019-03-24T04:06:17.052Z,45.57
2019-03-24T04:08:44.245Z,54.53
2019-03-24T04:11:11.643Z,47.57
2019-03-24T04:13:38.975Z,52.47
2019-03-24T04:16:06.129Z,54.73
2019-03-24T04:18:34.637Z,42.87
2019-03-24T04:21:01.885Z,53.23
2019-03-24T04:23:29.184Z,54.27
2019-03-24T04:25:56.386Z,53.37
2019-03-24T04:28:23.743Z,45.13
2019-03-24T04:30:52.665Z,48.13
2019-03-24T04:33:21.225Z,58.17
2019-03-24T04:35:49.696Z,54.13
2019-03-24T04:38:17.318Z,50.03
2019-03-24T04:40:45.827Z,58.73
2019-03-24T04:43:12.980Z,49.07
2019-03-24T04:45:40.426Z,52.53
2019-03-24T04:48:07.626Z,54.57
2019-03-24T04:50:34.940Z,51.23
2019-03-24T04:53:02.116Z,50.10
2019-03-24T04:55:32.212Z,54.00
2019-03-24T04:57:59.483Z,46.73
2019-03-24T05:00:34.564Z,54.13
2019-03-24T05:03:01.994Z,52.70
2019-03-24T05:05:29.299Z,43.97
2019-03-24T05:07:56.989Z,45.13
2019-03-24T05:10:27.455Z,52.57
2019-03-24T05:12:54.815Z,45.70
2019-03-24T05:15:22.229Z,61.10
2019-03-24T05:17:49.588Z,58.63
2019-03-24T05:20:16.975Z,49.73
2019-03-24T05:22:44.363Z,43.43
2019-03-24T05:25:11.720Z,62.20
2019-03-24T05:27:38.879Z,44.43
2019-03-24T05:30:06.497Z,52.73
2019-03-24T05:32:33.747Z,44.13
2019-03-24T05:35:01.729Z,47.63
2019-03-24T05:37:29.100Z,56.53
2019-03-24T05:39:56.308Z,49.67
2019-03-24T05:42:23.759Z,53.57
2019-03-24T05:44:50.944Z,48.70
2019-03-24T05:47:18.175Z,57.03
2019-03-24T05:49:45.371Z,63.03
2019-03-24T05:52:12.651Z,54.83
2019-03-24T05:54:39.941Z,58.67
2019-03-24T05:57:07.267Z,60.93
2019-03-24T05:59:34.550Z,54.63
2019-03-24T06:02:01.818Z,57.53
2019-03-24T06:04:29.190Z,56.83
2019-03-24T06:06:56.468Z,61.20
2019-03-24T06:09:23.905Z,67.60
2019-03-24T06:11:51.195Z,60.40
2019-03-24T06:14:18.368Z,61.07
2019-03-24T06:16:45.851Z,64.57
2019-03-24T06:19:13.343Z,54.97
2019-03-24T06:21:40.620Z,53.20
2019-03-24T06:24:07.849Z,66.77
2019-03-24T06:26:37.282Z,61.77
2019-03-24T06:29:04.715Z,59.27
2019-03-24T06:31:32.016Z,60.33
2019-03-24T06:34:00.611Z,59.37
2019-03-24T06:36:27.847Z,65.77
2019-03-24T06:38:55.204Z,61.53
2019-03-24T06:41:22.439Z,68.33
2019-03-24T06:43:49.953Z,61.80
2019-03-24T06:46:17.343Z,59.53
2019-03-24T06:48:44.535Z,58.67
2019-03-24T06:51:11.797Z,66.07
2019-03-24T06:53:39.750Z,67.03
2019-03-24T06:56:07.212Z,61.70
2019-03-24T06:58:34.444Z,59.07
2019-03-24T07:01:01.831Z,62.63
2019-03-24T07:03:29.177Z,58.90
2019-03-24T07:05:56.354Z,58.97
2019-03-24T07:08:23.675Z,53.93
2019-03-24T07:10:50.931Z,64.00
2019-03-24T07:13:19.100Z,60.00
2019-03-24T07:15:46.652Z,51.00
2019-03-24T07:18:14.005Z,51.17
2019-03-24T07:20:41.306Z,67.40
2019-03-24T07:23:08.509Z,59.27
2019-03-24T07:25:35.920Z,57.67
2019-03-24T07:28:03.228Z,54.60
2019-03-24T07:30:30.486Z,53.70
2019-03-24T07:32:57.756Z,55.23
2019-03-24T07:35:25.052Z,48.40
2019-03-24T07:37:52.244Z,48.50
2019-03-24T07:40:19.661Z,57.40
2019-03-24T07:42:46.960Z,47.37
2019-03-24T07:45:14.264Z,53.80
2019-03-24T07:47:41.624Z,50.60
2019-03-24T07:50:09.148Z,48.53
2019-03-24T07:52:36.509Z,53.13
2019-03-24T07:55:04.312Z,48.30
2019-03-24T07:57:32.017Z,42.40
2019-03-24T07:59:59.238Z,47.43
2019-03-24T08:02:26.435Z,49.73
2019-03-24T08:04:53.827Z,43.83
2019-03-24T08:07:20.897Z,44.13
2019-03-24T08:09:48.242Z,42.33
2019-03-24T08:12:15.442Z,40.13
2019-03-24T08:14:42.803Z,39.77
2019-03-24T08:17:10.074Z,45.07
2019-03-24T08:19:37.334Z,44.93
2019-03-24T08:22:04.573Z,39.80
2019-03-24T08:24:31.751Z,39.83
2019-03-24T08:26:59.204Z,42.90
2019-03-24T08:29:26.472Z,37.93
2019-03-24T08:31:53.776Z,43.97
2019-03-24T08:34:20.901Z,41.17
2019-03-24T08:36:48.128Z,41.37
2019-03-24T08:39:15.487Z,39.47
2019-03-24T08:41:42.563Z,44.90
2019-03-24T08:44:09.716Z,40.60
2019-03-24T08:46:37.047Z,42.50
2019-03-24T08:49:04.495Z,40.13
2019-03-24T08:51:31.749Z,40.27
2019-03-24T08:53:59.000Z,34.83
2019-03-24T08:56:26.279Z,39.80
2019-03-24T08:58:53.623Z,37.13
2019-03-24T09:01:20.830Z,37.97
2019-03-24T09:03:48.102Z,35.83
2019-03-24T09:06:15.189Z,40.40
2019-03-24T09:08:42.388Z,39.33
2019-03-24T09:11:09.769Z,35.57
2019-03-24T09:13:36.944Z,41.03
2019-03-24T09:16:04.248Z,41.10
2019-03-24T09:18:31.524Z,36.33
2019-03-24T09:20:58.836Z,34.13
2019-03-24T09:23:26.196Z,37.57
2019-03-24T09:25:53.657Z,35.97
2019-03-24T09:28:20.938Z,35.50
2019-03-24T09:30:48.244Z,36.43
2019-03-24T09:33:15.534Z,38.40
2019-03-24T09:35:42.845Z,34.07
2019-03-24T09:38:11.299Z,35.17
2019-03-24T09:40:38.666Z,35.50
2019-03-24T09:43:05.912Z,34.13
2019-03-24T09:45:33.280Z,35.93
2019-03-24T09:48:00.605Z,37.27
2019-03-24T09:50:27.988Z,31.23
2019-03-24T09:52:55.353Z,33.07
2019-03-24T09:55:22.567Z,38.77
2019-03-24T09:57:49.823Z,31.43
2019-03-24T10:00:17.134Z,35.90
2019-03-24T10:02:44.250Z,34.73
2019-03-24T10:05:11.800Z,32.20
2019-03-24T10:07:38.982Z,28.87
2019-03-24T10:10:06.423Z,32.30
2019-03-24T10:12:33.690Z,34.33
2019-03-24T10:15:00.899Z,32.40
2019-03-24T10:17:28.091Z,31.67
2019-03-24T10:19:55.216Z,32.67
2019-03-24T10:22:22.517Z,34.70
2019-03-24T10:24:49.707Z,34.10
2019-03-24T10:27:16.903Z,38.30
2019-03-24T10:29:44.234Z,32.53
2019-03-24T10:32:11.774Z,35.53
2019-03-24T10:34:39.246Z,33.13
2019-03-24T10:37:06.471Z,31.47
2019-03-24T10:39:33.928Z,31.17
2019-03-24T10:42:01.271Z,31.13
2019-03-24T10:44:28.540Z,36.57
2019-03-24T10:46:55.905Z,34.50
2019-03-24T10:49:25.047Z,32.23
2019-03-24T10:51:52.685Z,29.73
2019-03-24T10:54:19.763Z,34.30
2019-03-24T10:56:46.946Z,29.13
2019-03-24T10:59:14.304Z,31.30
2019-03-24T11:01:41.481Z,30.37
2019-03-24T11:04:08.772Z,32.80
2019-03-24T11:06:36.028Z,30.33
2019-03-24T11:09:04.067Z,29.70
2019-03-24T11:11:31.143Z,31.23
2019-03-24T11:13:58.408Z,29.63
2019-03-24T11:16:25.566Z,29.47
2019-03-24T11:18:52.908Z,23.60
2019-03-24T11:21:20.189Z,29.82
2019-03-24T11:23:47.380Z,27.23
2019-03-24T11:26:14.579Z,28.70
2019-03-24T11:28:41.925Z,30.70
2019-03-24T11:31:09.185Z,29.83
2019-03-24T11:33:36.364Z,32.73
2019-03-24T11:36:03.646Z,28.63
2019-03-24T11:38:31.256Z,26.47
2019-03-24T11:40:58.373Z,27.20
2019-03-24T11:43:25.800Z,25.90
2019-03-24T11:45:53.152Z,26.47
2019-03-24T11:48:20.323Z,26.43
2019-03-24T11:50:48.641Z,28.57
2019-03-24T11:53:15.852Z,29.80
2019-03-24T11:55:43.041Z,28.30
2019-03-24T11:58:10.188Z,25.43
2019-03-24T12:00:38.878Z,28.70
2019-03-24T12:03:06.363Z,28.13
2019-03-24T12:05:33.681Z,26.50
2019-03-24T12:08:01.046Z,25.97
2019-03-24T12:10:28.345Z,25.47
2019-03-24T12:12:55.520Z,28.57
2019-03-24T12:15:22.839Z,27.23
2019-03-24T12:17:49.941Z,27.97
2019-03-24T12:20:17.142Z,27.73
2019-03-24T12:22:44.418Z,24.77
2019-03-24T12:25:11.700Z,27.50
2019-03-24T12:27:38.878Z,27.93
2019-03-24T12:30:07.315Z,30.60
2019-03-24T12:32:34.659Z,26.20
2019-03-24T12:35:01.979Z,27.53
2019-03-24T12:37:29.332Z,28.27
2019-03-24T12:39:58.091Z,25.87
2019-03-24T12:42:25.462Z,33.23
2019-03-24T12:44:52.814Z,29.00
2019-03-24T12:47:20.135Z,27.13
2019-03-24T12:49:47.431Z,29.23
2019-03-24T12:52:14.625Z,29.60
2019-03-24T12:54:41.908Z,27.97
2019-03-24T12:57:09.122Z,27.10
2019-03-24T12:59:36.362Z,27.23
2019-03-24T13:02:03.780Z,26.70
2019-03-24T13:04:31.180Z,23.43
2019-03-24T13:06:58.376Z,26.77
2019-03-24T13:09:25.766Z,26.23
2019-03-24T13:11:53.145Z,25.13
2019-03-24T13:14:20.230Z,22.73
2019-03-24T13:16:47.455Z,24.40
2019-03-24T13:19:14.655Z,24.30
2019-03-24T13:21:41.753Z,28.37
2019-03-24T13:24:09.009Z,30.57
2019-03-24T13:26:36.351Z,27.40
2019-03-24T13:29:03.766Z,28.00
2019-03-24T13:31:30.952Z,25.50
2019-03-24T13:33:58.253Z,25.43
2019-03-24T13:36:25.456Z,24.63
2019-03-24T13:38:52.639Z,27.27
2019-03-24T13:41:19.909Z,25.40
2019-03-24T13:43:46.995Z,25.90
2019-03-24T13:46:14.374Z,26.10
2019-03-24T13:48:41.694Z,23.60
2019-03-24T13:51:08.888Z,25.60
2019-03-24T13:53:36.230Z,22.03
2019-03-24T13:56:03.900Z,23.80
2019-03-24T13:58:31.087Z,26.47
2019-03-24T14:00:58.497Z,20.87
2019-03-24T14:03:25.725Z,25.23
2019-03-24T14:05:52.938Z,26.03
2019-03-24T14:08:20.186Z,24.30
2019-03-24T14:10:47.495Z,26.57
2019-03-24T14:13:14.608Z,22.90
2019-03-24T14:15:41.796Z,21.80
2019-03-24T14:18:09.118Z,20.93
2019-03-24T14:20:43.305Z,20.57
2019-03-24T14:23:05.614Z,21.43
2019-03-24T14:25:32.907Z,23.73
2019-03-24T14:28:00.203Z,17.93
2019-03-24T14:30:40.270Z,21.40
2019-03-24T14:33:07.491Z,22.83
2019-03-24T14:35:34.696Z,22.83
2019-03-24T14:38:01.996Z,19.97
2019-03-24T14:40:29.306Z,19.90
2019-03-24T14:42:56.495Z,22.33
2019-03-24T14:45:24.283Z,23.30
2019-03-24T14:47:51.399Z,23.33
2019-03-24T14:50:18.683Z,20.37
2019-03-24T14:52:46.091Z,19.23
2019-03-24T14:55:13.401Z,21.30
2019-03-24T14:57:40.750Z,21.80
2019-03-24T15:00:08.452Z,20.70
2019-03-24T15:02:35.975Z,20.07
2019-03-24T15:05:03.852Z,21.77
2019-03-24T15:07:31.023Z,21.07
2019-03-24T15:09:58.332Z,18.10
2019-03-24T15:12:25.531Z,20.70
2019-03-24T15:14:52.732Z,19.33
2019-03-24T15:17:20.036Z,20.30
2019-03-24T15:19:47.332Z,20.33
2019-03-24T15:22:14.546Z,21.63
2019-03-24T15:24:42.001Z,19.47
2019-03-24T15:27:09.317Z,19.47
2019-03-24T15:29:36.528Z,18.20
2019-03-24T15:32:03.952Z,18.47
2019-03-24T15:34:31.313Z,21.20
2019-03-24T15:36:58.492Z,20.50
2019-03-24T15:39:26.150Z,21.97
2019-03-24T15:41:53.381Z,19.00
2019-03-24T15:44:20.599Z,21.17
2019-03-24T15:46:47.878Z,23.03
2019-03-24T15:49:14.972Z,25.33
2019-03-24T15:51:42.126Z,21.37
2019-03-24T15:54:13.288Z,22.60
2019-03-24T15:56:40.180Z,24.20
2019-03-24T15:59:07.575Z,20.93
2019-03-24T16:01:34.836Z,31.00
2019-03-24T16:04:02.015Z,26.40
2019-03-24T16:06:29.274Z,23.03
2019-03-24T16:08:56.631Z,23.93
2019-03-24T16:11:23.841Z,24.17
2019-03-24T16:13:53.983Z,23.80
2019-03-24T16:16:23.064Z,23.97
2019-03-24T16:18:50.642Z,22.07
2019-03-24T16:21:27.311Z,27.53
2019-03-24T16:23:47.377Z,24.90
2019-03-24T16:26:14.769Z,21.93
2019-03-24T16:28:42.113Z,25.93
2019-03-24T16:31:09.656Z,22.70
2019-03-24T16:33:36.983Z,23.87
2019-03-24T16:36:04.453Z,22.90
2019-03-24T16:38:31.833Z,25.80
2019-03-24T16:40:59.789Z,22.43
2019-03-24T16:43:27.182Z,26.93
2019-03-24T16:45:54.564Z,26.47
2019-03-24T16:48:21.908Z,27.07
2019-03-24T16:50:49.206Z,24.17
2019-03-24T16:53:16.543Z,25.10
2019-03-24T16:55:43.732Z,27.30
2019-03-24T16:58:11.020Z,28.67
2019-03-24T17:00:38.421Z,24.40
2019-03-24T17:03:05.791Z,26.13
2019-03-24T17:05:33.077Z,28.90
2019-03-24T17:08:00.433Z,25.30
2019-03-24T17:10:27.663Z,27.97
2019-03-24T17:12:54.827Z,26.53
2019-03-24T17:15:22.195Z,32.40
2019-03-24T17:17:49.359Z,27.60
2019-03-24T17:20:16.576Z,35.97
2019-03-24T17:22:43.726Z,29.07
2019-03-24T17:25:11.097Z,29.50
2019-03-24T17:27:38.490Z,28.90
2019-03-24T17:30:07.284Z,33.37
2019-03-24T17:32:34.635Z,29.57
2019-03-24T17:35:01.834Z,29.90
2019-03-24T17:37:30.098Z,31.73
2019-03-24T17:39:57.569Z,29.67
2019-03-24T17:42:24.907Z,31.73
2019-03-24T17:44:52.202Z,28.40
2019-03-24T17:47:19.498Z,27.17
2019-03-24T17:49:48.045Z,34.23
2019-03-24T17:52:15.461Z,37.57
2019-03-24T17:54:42.728Z,28.13
2019-03-24T17:57:10.187Z,31.03
2019-03-24T17:59:37.542Z,34.63
2019-03-24T18:02:14.161Z,31.13
2019-03-24T18:04:37.528Z,30.90
2019-03-24T18:07:04.836Z,35.80
2019-03-24T18:09:32.251Z,34.60
2019-03-24T18:11:59.436Z,30.77
2019-03-24T18:14:26.753Z,29.27
2019-03-24T18:16:54.066Z,28.17
2019-03-24T18:19:21.421Z,29.73
2019-03-24T18:21:48.792Z,42.37
2019-03-24T18:24:16.242Z,31.97
2019-03-24T18:26:43.598Z,33.70
2019-03-24T18:29:10.863Z,31.13
2019-03-24T18:31:38.092Z,38.90
2019-03-24T18:34:05.375Z,34.80
2019-03-24T18:36:32.810Z,33.50
2019-03-24T18:39:00.249Z,33.90
2019-03-24T18:41:27.639Z,32.23
2019-03-24T18:43:55.141Z,37.70
2019-03-24T18:46:22.379Z,36.27
2019-03-24T18:48:50.974Z,30.83
2019-03-24T18:51:18.049Z,30.90
2019-03-24T18:53:45.340Z,35.23
2019-03-24T18:56:12.617Z,36.53
2019-03-24T18:58:39.940Z,36.67
2019-03-24T19:01:07.322Z,33.73
2019-03-24T19:03:34.568Z,34.27
2019-03-24T19:06:01.841Z,34.87
2019-03-24T19:08:29.334Z,34.17
2019-03-24T19:10:56.777Z,34.53
2019-03-24T19:13:24.011Z,30.93
2019-03-24T19:15:51.263Z,33.03
2019-03-24T19:18:18.581Z,34.87
2019-03-24T19:20:45.867Z,32.03
2019-03-24T19:23:13.155Z,29.97
2019-03-24T19:25:40.426Z,30.33
2019-03-24T19:28:07.747Z,36.70
2019-03-24T19:30:39.589Z,31.50
2019-03-24T19:33:07.034Z,26.27
2019-03-24T19:35:34.501Z,36.73
2019-03-24T19:38:02.964Z,36.27
2019-03-24T19:40:31.867Z,34.00
2019-03-24T19:42:59.176Z,37.07
2019-03-24T19:45:26.608Z,35.73
2019-03-24T19:47:54.111Z,35.50
2019-03-24T19:50:21.499Z,38.33
2019-03-24T19:52:48.974Z,35.40
2019-03-24T19:55:16.365Z,46.10
2019-03-24T19:57:43.679Z,40.00
2019-03-24T20:00:10.958Z,39.37
2019-03-24T20:02:38.333Z,47.27
2019-03-24T20:05:07.127Z,41.23
2019-03-24T20:07:35.659Z,41.33
2019-03-24T20:10:03.240Z,36.90
2019-03-24T20:12:31.337Z,51.70
2019-03-24T20:14:58.532Z,40.30
2019-03-24T20:17:25.844Z,37.53
2019-03-24T20:19:53.162Z,36.87
2019-03-24T20:22:20.895Z,43.93
2019-03-24T20:24:48.300Z,32.97
2019-03-24T20:27:15.692Z,37.37
2019-03-24T20:29:43.062Z,38.23
2019-03-24T20:32:10.553Z,31.77
2019-03-24T20:34:37.964Z,29.37
2019-03-24T20:37:05.272Z,38.20
2019-03-24T20:39:33.892Z,42.10
2019-03-24T20:42:04.078Z,40.10
2019-03-24T20:44:31.379Z,45.53
2019-03-24T20:46:58.632Z,43.37
2019-03-24T20:49:26.085Z,42.57
2019-03-24T20:51:53.422Z,43.40
2019-03-24T20:54:20.807Z,37.90
2019-03-24T20:56:48.175Z,37.13
2019-03-24T20:59:15.501Z,37.70
2019-03-24T21:01:42.889Z,40.03
2019-03-24T21:04:10.384Z,38.53
2019-03-24T21:06:37.697Z,40.20
2019-03-24T21:09:06.809Z,39.67
2019-03-24T21:11:34.252Z,39.70
2019-03-24T21:14:01.624Z,42.37
2019-03-24T21:16:28.953Z,39.63
2019-03-24T21:18:56.323Z,45.90
2019-03-24T21:21:23.755Z,40.80
2019-03-24T21:23:51.261Z,39.40
2019-03-24T21:26:18.568Z,45.40
2019-03-24T21:28:46.028Z,43.63
2019-03-24T21:31:13.342Z,47.20
2019-03-24T21:33:40.739Z,42.23
2019-03-24T21:36:08.106Z,33.43
2019-03-24T21:38:35.336Z,35.13
2019-03-24T21:41:02.673Z,39.67
2019-03-24T21:43:30.075Z,30.40
2019-03-24T21:45:57.448Z,38.77
2019-03-24T21:48:25.000Z,33.60
2019-03-24T21:50:52.353Z,30.17
2019-03-24T21:53:19.600Z,36.70
2019-03-24T21:55:47.027Z,32.00
2019-03-24T21:58:14.415Z,34.93
2019-03-24T22:00:41.779Z,33.90
2019-03-24T22:03:09.111Z,38.80
2019-03-24T22:05:36.854Z,34.73
2019-03-24T22:08:04.947Z,35.33
2019-03-24T22:10:32.327Z,45.57
2019-03-24T22:12:59.606Z,37.40
2019-03-24T22:15:27.098Z,37.23
2019-03-24T22:17:54.422Z,38.57
2019-03-24T22:20:21.680Z,32.07
2019-03-24T22:22:49.961Z,39.97
2019-03-24T22:25:17.368Z,37.20
2019-03-24T22:27:44.576Z,41.63
2019-03-24T22:30:11.983Z,35.20
2019-03-24T22:32:40.039Z,43.30
2019-03-24T22:35:07.415Z,41.93
2019-03-24T22:37:34.748Z,48.70
2019-03-24T22:40:03.692Z,43.00
2019-03-24T22:42:31.898Z,45.10
2019-03-24T22:44:59.293Z,48.37
2019-03-24T22:47:26.629Z,37.43
2019-03-24T22:49:53.904Z,43.63
2019-03-24T22:52:21.176Z,40.57
2019-03-24T22:54:48.372Z,41.27
2019-03-24T22:57:15.575Z,43.40
2019-03-24T22:59:42.772Z,47.70
2019-03-24T23:02:10.093Z,41.07
2019-03-24T23:04:37.381Z,44.60
2019-03-24T23:07:04.637Z,41.30
2019-03-24T23:09:31.823Z,41.10
2019-03-24T23:11:59.047Z,48.10
2019-03-24T23:14:26.349Z,43.53
2019-03-24T23:16:53.623Z,39.60
2019-03-24T23:19:20.909Z,46.63
2019-03-24T23:21:48.373Z,48.83
2019-03-24T23:24:16.101Z,42.20
2019-03-24T23:26:43.537Z,47.87
2019-03-24T23:29:11.044Z,44.73
2019-03-24T23:31:38.236Z,42.63
2019-03-24T23:34:05.358Z,47.10
2019-03-24T23:36:32.758Z,44.07
2019-03-24T23:38:59.956Z,41.97
2019-03-24T23:41:27.147Z,47.13
2019-03-24T23:43:54.460Z,35.80
2019-03-24T23:46:21.695Z,38.23
2019-03-24T23:48:48.861Z,42.77
2019-03-24T23:51:16.159Z,46.07
2019-03-24T23:53:43.328Z,44.90
2019-03-24T23:56:10.690Z,34.87
2019-03-24T23:58:41.028Z,33.57
